CLMO2: North Canadian River

Data processed at Sat Dec 15 2018 23:32


All information presented herein is the property of the government of the United States of America and may be revised or deleted at any time without prior notice.
Dissemination of this information without the expressed written consent of the Public Affairs Office, Tulsa District U.S. Army Corps of Engineers is strictly prohibited.
These data are gathered electronically and, as presented, have not undergone any form of quality control. These data are not guaranteed to be valid or correct.
Go to home page.
Go to station list.
Go to home page.

Upstream stations:

Downstream station:
Previous Day
Next Day
Current Day
    
SHEF ID:       CLMO2     North Canadian River near Calume
STATION TYPE:  

                STAGE  STAGE(2)  RIV-FLOW  WTR-TEMP   DIS-OXY        PH   CONDUCT  BAT-LOAD
                   ft        ft       cfs         F      mg/l        su   umho/cm      volt
              Ccp-Rev   Ccp-Rev   Ccp-Rev   Ccp-Rev   Ccp-Rev   Ccp-Rev   Ccp-Rev   Ccp-Rev
(US/Central)
12/15 00:00      5.55      ----       214     39.58     11.57      8.33      1603     12.73
12/15 01:00      5.55      ----       214     39.34     11.60      8.33      1604     12.73
12/15 02:00      5.54      ----       213     39.13     11.62      8.32      1603     12.73
12/15 03:00      5.55      ----       214     38.91     11.64      8.32      1604     12.65
12/15 04:00      5.54      ----       213     38.77     11.64      8.32      1605     12.65
12/15 05:00      5.54      ----       213     38.62     11.65      8.32      1608     12.65
12/15 06:00      5.54      ----       213     38.48     11.67      8.32      1607     12.65
12/15 07:00      5.54      ----       213     38.28     11.68      8.32      1608     12.57
12/15 08:00      5.53      ----       211     38.08     11.71      8.32      1611     12.57
12/15 09:00      5.52      ----       210     37.98     11.75      8.31      1611     12.65
12/15 10:00      5.52      ----       210     38.10     11.80      8.31      1609     13.21
12/15 11:00      5.52      ----       210     38.44     11.84      8.32      1607     13.53
12/15 12:00      5.51      ----       209     39.07     11.86      8.31      1605     13.53
12/15 13:00      5.51      ----       209     39.85     11.84      8.32      1604     13.44
12/15 14:00      5.52      ----       210     40.53     11.81      8.32      1602     13.60
12/15 15:00      5.52      ----       210     40.98     11.78      8.32      1601     13.29
12/15 16:00      5.52      ----       210     41.14     11.74      8.32      1599     13.21
12/15 17:00      5.51      ----       209     41.04     11.73      8.31      1600     13.13
12/15 18:00      5.52      ----       210     40.66     11.73      8.30      1600     12.97
12/15 19:00      5.51      ----       209     40.26     11.73      8.30      1601     12.97
12/15 20:00      5.52      ----       210     39.90     11.72      8.30      1603     12.89
12/15 21:00      5.52      ----       210     39.65     11.71      8.30      1605     12.81
12/15 22:00      5.52      ----       210     39.43     11.70      8.30      1606     12.81
12/15 23:00      5.52      ----       210     39.29     11.70      8.29      1606     12.73